Προγνώσεις καιρού υψηλής ανάλυσης για την παραλία Κέρος της Λήμνου, με εξειδικευμένη μετεωρολογική επιμέλεια από τον μετεωρολόγο Χρήστο Χατζούδη και τη WeatherDom . Τα δεδομένα προσφέρουν αναλυτική εικόνα των καιρικών συνθηκών ενός μοντέλου με ανάλυση 1.7 χλμ .
Σποτ: Keros - lat: 39.910844 long: 25.360019
Ενημέρωση πρόγνωσης: 05/09/2026 13:12
Ανατολή: 06:48 - Δύση: 19:45
Πρώτο φως: 05:50 - Τελευταίο φως: 20:44
05/09
Σάββατο 5 Σεπτεμβρίου Ώρα Καιρός Θερμ. (°C) Υγρασία (%) Άνεμος (Knts) Ριπές (Knts) Διεύθ. 03:00 24° 71% 14 18
04:00 24° 77% 10 19
05:00 24° 74% 11 18
06:00 24° 71% 12 19
07:00 24° 70% 16 19
08:00 24° 71% 15 18
09:00 24° 71% 15 18
10:00 24° 71% 13 16
11:00 24° 68% 12 15
12:00 25° 61% 15 19
13:00 26° 53% 14 17
14:00 27° 52% 12 16
15:00 27° 50% 11 15
16:00 27° 50% 10 13
17:00 28° 49% 9 12
18:00 28° 50% 8 11
19:00 27° 52% 9 12
20:00 26° 52% 4 7
21:00 23° 54% 5 7
22:00 23° 59% 4 6
23:00 22° 69% 4 6
06/09
Κυριακή 6 Σεπτεμβρίου Ώρα Καιρός Θερμ. (°C) Υγρασία (%) Άνεμος (Knts) Ριπές (Knts) Διεύθ. 00:00 21° 83% 4 6
01:00 21° 89% 3 5
02:00 21° 89% 2 4
03:00 21° 88% 2 4
04:00 26° 63% 4 7
05:00 26° 61% 5 9
06:00 26° 60% 6 10
07:00 26° 61% 6 9
08:00 26° 63% 5 9
09:00 26° 64% 5 8
10:00 26° 64% 5 9
11:00 26° 64% 6 9
12:00 26° 64% 6 10
13:00 26° 61% 5 9
14:00 27° 59% 4 8
15:00 27° 56% 4 7
16:00 27° 58% 4 8
17:00 28° 59% 5 9
18:00 28° 61% 6 10
19:00 28° 61% 4 11
20:00 27° 61% 6 13
21:00 27° 61% 9 14
22:00 27° 66% 11 17
23:00 26° 70% 13 19
07/09
Δευτέρα 7 Σεπτεμβρίου Ώρα Καιρός Θερμ. (°C) Υγρασία (%) Άνεμος (Knts) Ριπές (Knts) Διεύθ. 00:00 26° 75% 15 22
01:00 26° 77% 15 23
02:00 25° 80% 15 24
03:00 25° 77% 15 23
04:00 25° 70% 15 24
05:00 25° 64% 15 24
06:00 25° 57% 15 25
07:00 25° 62% 16 26
08:00 24° 67% 18 26
09:00 24° 72% 19 27
10:00 24° 71% 19 27
11:00 25° 69% 19 27
12:00 25° 68% 19 27
13:00 25° 68% 17 24
14:00 26° 67% 14 20
15:00 26° 67% 12 17
16:00 26° 66% 10 15
17:00 26° 65% 9 13
18:00 26° 64% 7 11
19:00 26° 64% 8 14
20:00 26° 64% 11 18
21:00 26° 64% 14 21
22:00 25° 66% 14 21
23:00 25° 69% 14 20
08/09
Τρίτη 8 Σεπτεμβρίου Ώρα Καιρός Θερμ. (°C) Υγρασία (%) Άνεμος (Knts) Ριπές (Knts) Διεύθ. 00:00 24° 71% 14 20
01:00 24° 69% 16 22
02:00 24° 67% 17 25
03:00 24° 65% 19 27
04:00 24° 66% 19 27
05:00 23° 67% 19 27
06:00 23° 68% 19 27
07:00 23° 66% 20 28
08:00 23° 63% 20 28
09:00 23° 61% 21 29
10:00 23° 60% 21 29
11:00 23° 59% 20 28
12:00 23° 58% 20 28
13:00 24° 56% 17 25
14:00 24° 54% 13 21
15:00 25° 52% 10 18
16:00 25° 53% 9 16
17:00 25° 55% 8 13
18:00 25° 56% 7 11
19:00 25° 58% 8 14
20:00 25° 61% 10 18
21:00 25° 63% 14 21
22:00 24° 62% 16 24
23:00 24° 62% 19 26
09/09
Τετάρτη 9 Σεπτεμβρίου Ώρα Καιρός Θερμ. (°C) Υγρασία (%) Άνεμος (Knts) Ριπές (Knts) Διεύθ. 00:00 23° 61% 21 29
01:00 23° 62% 21 29
02:00 22° 62% 21 29
03:00 22° 63% 21 29
04:00 22° 64% 21 29
05:00 22° 65% 20 28
06:00 22° 66% 20 28
07:00 22° 66% 20 28
08:00 22° 67% 21 29
09:00 22° 67% 21 29
10:00 22° 67% 20 28
11:00 23° 66% 20 28
12:00 23° 66% 19 27
13:00 24° 63% 16 24
14:00 24° 59% 14 21
15:00 25° 56% 11 18
16:00 25° 57% 10 16
17:00 25° 59% 8 13
18:00 25° 60% 7 11
19:00 25° 62% 8 13
20:00 25° 64% 9 16
21:00 25° 66% 12 18
22:00 25° 67% 14 20
23:00 24° 67% 15 23
10/09
Πέμπτη 10 Σεπτεμβρίου Ώρα Καιρός Θερμ. (°C) Υγρασία (%) Άνεμος (Knts) Ριπές (Knts) Διεύθ. 00:00 24° 68% 17 25
01:00 24° 65% 18 26
02:00 23° 63% 18 26
03:00 23° 60% 19 27
04:00 23° 61% 18 26
05:00 22° 61% 18 26
06:00 22° 62% 17 25
07:00 22° 63% 17 25
08:00 22° 63% 17 25
09:00 22° 64% 17 25
10:00 22° 63% 16 24
11:00 23° 63% 16 23
12:00 23° 62% 15 22
13:00 23° 58% 13 20
14:00 24° 55% 11 17
15:00 24° 51% 10 15
16:00 24° 52% 8 14
17:00 24° 54% 8 14
18:00 24° 55% 8 13
19:00 24° 59% 7 12
20:00 24° 63% 6 12
21:00 24° 67% 7 11
22:00 24° 68% 8 14
23:00 24° 70% 11 17
11/09
Παρασκευή 11 Σεπτεμβρίου Ώρα Καιρός Θερμ. (°C) Υγρασία (%) Άνεμος (Knts) Ριπές (Knts) Διεύθ. 00:00 24° 71% 14 20
01:00 24° 68% 14 21
02:00 23° 66% 15 23
03:00 23° 63% 16 24
04:00 23° 64% 16 24
05:00 22° 64% 16 24
06:00 22° 65% 16 24
07:00 22° 65% 16 24
08:00 22° 64% 16 24
09:00 22° 64% 16 24
10:00 22° 63% 15 22
11:00 23° 63% 14 21
12:00 23° 62% 13 19
13:00 23° 60% 10 16
14:00 24° 58% 8 13
15:00 24° 56% 6 10
16:00 24° 55% 5 9
17:00 25° 55% 5 9
18:00 25° 54% 5 8
19:00 25° 57% 4 7
20:00 24° 61% 3 6
21:00 24° 64% 2 5
22:00 24° 65% 2 6
23:00 24° 65% 3 7
12/09
Σάββατο 12 Σεπτεμβρίου Ώρα Καιρός Θερμ. (°C) Υγρασία (%) Άνεμος (Knts) Ριπές (Knts) Διεύθ. 00:00 24° 66% 5 8
01:00 24° 66% 4 7
02:00 24° 66% 4 7
03:00 24° 66% 3 6
04:00 24° 66% 3 6
05:00 24° 65% 4 7
06:00 24° 65% 4 7
07:00 24° 65% 3 6
08:00 24° 66% 2 6
09:00 24° 66% 2 5
10:00 25° 63% 2 5
11:00 25° 59% 2 6
12:00 26° 56% 3 6
13:00 26° 59% 3 6
14:00 27° 62% 4 7
15:00 27° 65% 4 7
16:00 27° 66% 5 9
17:00 26° 68% 7 11
18:00 26° 69% 8 13
19:00 26° 68% 9 16
20:00 25° 67% 10 20
21:00 25° 66% 11 23
22:00 25° 70% 12 24
23:00 25° 73% 12 26
13/09
Κυριακή 13 Σεπτεμβρίου Ώρα Καιρός Θερμ. (°C) Υγρασία (%) Άνεμος (Knts) Ριπές (Knts) Διεύθ. 00:00 25° 77% 13 27
01:00 25° 79% 11 22
02:00 24° 81% 9 18
03:00 24° 83% 7 13
Developed by Rousis Dimitris - LinkedIn profile
Powered by: WeatherDom - Christos Chatzoudis
Πρόγνωση ανέμου — Keros Ενημέρωση: 05/09 13:12 Ωριαία Ανά 3 ώρες
Ένταση 0 → 40 kt · μαύρη γραμμή = μέσος άνεμος, χρωματιστός φάκελος = ριπές